sensor_id;sensor_type;location;lat;lon;timestamp;P1;durP1;ratioP1;P2;durP2;ratioP2
50337;SDS011;46221;51.178;5.900;2023-07-13T00:00:55;2.80;;;1.23;;
50337;SDS011;46221;51.178;5.900;2023-07-13T00:03:22;2.20;;;1.10;;
50337;SDS011;46221;51.178;5.900;2023-07-13T00:05:56;2.75;;;1.08;;
50337;SDS011;46221;51.178;5.900;2023-07-13T00:08:23;3.45;;;1.15;;
50337;SDS011;46221;51.178;5.900;2023-07-13T00:10:51;2.35;;;1.10;;
50337;SDS011;46221;51.178;5.900;2023-07-13T00:13:20;2.97;;;0.90;;
50337;SDS011;46221;51.178;5.900;2023-07-13T00:15:46;2.60;;;1.00;;
50337;SDS011;46221;51.178;5.900;2023-07-13T00:18:13;2.30;;;0.70;;
50337;SDS011;46221;51.178;5.900;2023-07-13T00:20:40;2.67;;;1.15;;
50337;SDS011;46221;51.178;5.900;2023-07-13T00:23:07;2.88;;;0.82;;
50337;SDS011;46221;51.178;5.900;2023-07-13T00:25:33;2.88;;;0.90;;
50337;SDS011;46221;51.178;5.900;2023-07-13T00:28:01;2.00;;;0.80;;
50337;SDS011;46221;51.178;5.900;2023-07-13T00:30:28;3.00;;;0.95;;
50337;SDS011;46221;51.178;5.900;2023-07-13T00:32:54;2.47;;;1.00;;
50337;SDS011;46221;51.178;5.900;2023-07-13T00:35:37;1.92;;;0.68;;
50337;SDS011;46221;51.178;5.900;2023-07-13T00:38:05;3.30;;;0.82;;
50337;SDS011;46221;51.178;5.900;2023-07-13T00:40:32;2.78;;;0.95;;
50337;SDS011;46221;51.178;5.900;2023-07-13T00:42:59;3.10;;;1.00;;
50337;SDS011;46221;51.178;5.900;2023-07-13T00:47:52;3.65;;;0.82;;
50337;SDS011;46221;51.178;5.900;2023-07-13T00:50:19;2.88;;;1.00;;
50337;SDS011;46221;51.178;5.900;2023-07-13T00:52:46;1.63;;;0.82;;
50337;SDS011;46221;51.178;5.900;2023-07-13T00:55:14;3.17;;;1.02;;
50337;SDS011;46221;51.178;5.900;2023-07-13T00:57:41;2.15;;;0.70;;
50337;SDS011;46221;51.178;5.900;2023-07-13T01:00:08;3.90;;;1.42;;
50337;SDS011;46221;51.178;5.900;2023-07-13T01:02:35;3.25;;;1.15;;
50337;SDS011;46221;51.178;5.900;2023-07-13T01:05:10;3.88;;;1.05;;
50337;SDS011;46221;51.178;5.900;2023-07-13T01:07:36;2.22;;;0.85;;
50337;SDS011;46221;51.178;5.900;2023-07-13T01:10:03;2.97;;;0.82;;
50337;SDS011;46221;51.178;5.900;2023-07-13T01:12:30;1.48;;;0.80;;
50337;SDS011;46221;51.178;5.900;2023-07-13T01:14:57;2.88;;;0.90;;
50337;SDS011;46221;51.178;5.900;2023-07-13T01:17:24;2.00;;;0.85;;
50337;SDS011;46221;51.178;5.900;2023-07-13T01:19:51;2.35;;;1.02;;
50337;SDS011;46221;51.178;5.900;2023-07-13T01:22:17;2.35;;;0.80;;
50337;SDS011;46221;51.178;5.900;2023-07-13T01:24:47;3.10;;;0.82;;
50337;SDS011;46221;51.178;5.900;2023-07-13T01:27:15;2.45;;;0.82;;
50337;SDS011;46221;51.178;5.900;2023-07-13T01:29:43;3.33;;;1.13;;
50337;SDS011;46221;51.178;5.900;2023-07-13T01:32:11;1.35;;;0.60;;
50337;SDS011;46221;51.178;5.900;2023-07-13T01:34:37;2.25;;;1.00;;
50337;SDS011;46221;51.178;5.900;2023-07-13T01:37:04;2.42;;;0.90;;
50337;SDS011;46221;51.178;5.900;2023-07-13T01:39:31;2.10;;;0.90;;
50337;SDS011;46221;51.178;5.900;2023-07-13T01:41:57;2.60;;;0.88;;
50337;SDS011;46221;51.178;5.900;2023-07-13T01:44:24;2.75;;;1.00;;
50337;SDS011;46221;51.178;5.900;2023-07-13T01:46:50;3.17;;;1.00;;
50337;SDS011;46221;51.178;5.900;2023-07-13T01:49:17;3.35;;;1.00;;
50337;SDS011;46221;51.178;5.900;2023-07-13T01:51:43;2.47;;;0.90;;
50337;SDS011;46221;51.178;5.900;2023-07-13T01:54:10;3.78;;;0.90;;
50337;SDS011;46221;51.178;5.900;2023-07-13T01:56:36;2.95;;;0.80;;
50337;SDS011;46221;51.178;5.900;2023-07-13T01:59:03;2.22;;;1.10;;
50337;SDS011;46221;51.178;5.900;2023-07-13T02:01:29;2.10;;;0.80;;
50337;SDS011;46221;51.178;5.900;2023-07-13T02:03:55;2.75;;;0.88;;
50337;SDS011;46221;51.178;5.900;2023-07-13T02:06:22;2.15;;;0.98;;
50337;SDS011;46221;51.178;5.900;2023-07-13T02:08:48;2.63;;;0.80;;
50337;SDS011;46221;51.178;5.900;2023-07-13T02:11:15;3.85;;;1.00;;
50337;SDS011;46221;51.178;5.900;2023-07-13T02:13:41;3.17;;;0.98;;
50337;SDS011;46221;51.178;5.900;2023-07-13T02:16:07;3.15;;;1.20;;
50337;SDS011;46221;51.178;5.900;2023-07-13T02:18:34;1.95;;;0.80;;
50337;SDS011;46221;51.178;5.900;2023-07-13T02:21:01;2.45;;;0.90;;
50337;SDS011;46221;51.178;5.900;2023-07-13T02:23:29;2.40;;;0.80;;
50337;SDS011;46221;51.178;5.900;2023-07-13T02:25:56;2.15;;;1.20;;
50337;SDS011;46221;51.178;5.900;2023-07-13T02:28:22;3.47;;;1.02;;
50337;SDS011;46221;51.178;5.900;2023-07-13T02:30:49;1.80;;;0.82;;
50337;SDS011;46221;51.178;5.900;2023-07-13T02:33:15;1.77;;;0.70;;
50337;SDS011;46221;51.178;5.900;2023-07-13T02:35:42;2.55;;;0.73;;
50337;SDS011;46221;51.178;5.900;2023-07-13T02:38:08;2.38;;;1.05;;
50337;SDS011;46221;51.178;5.900;2023-07-13T02:40:35;9.57;;;1.40;;
50337;SDS011;46221;51.178;5.900;2023-07-13T02:43:02;3.30;;;1.15;;
50337;SDS011;46221;51.178;5.900;2023-07-13T02:45:29;2.95;;;1.00;;
50337;SDS011;46221;51.178;5.900;2023-07-13T02:47:55;3.03;;;0.90;;
50337;SDS011;46221;51.178;5.900;2023-07-13T02:50:21;3.78;;;1.00;;
50337;SDS011;46221;51.178;5.900;2023-07-13T02:52:48;3.42;;;1.00;;
50337;SDS011;46221;51.178;5.900;2023-07-13T02:55:14;3.15;;;1.00;;
50337;SDS011;46221;51.178;5.900;2023-07-13T02:57:41;2.35;;;0.77;;
50337;SDS011;46221;51.178;5.900;2023-07-13T03:00:07;3.63;;;1.10;;
50337;SDS011;46221;51.178;5.900;2023-07-13T03:02:34;1.90;;;0.90;;
50337;SDS011;46221;51.178;5.900;2023-07-13T03:05:01;2.00;;;0.68;;
50337;SDS011;46221;51.178;5.900;2023-07-13T03:07:28;2.47;;;0.90;;
50337;SDS011;46221;51.178;5.900;2023-07-13T03:09:56;4.07;;;1.02;;
50337;SDS011;46221;51.178;5.900;2023-07-13T03:12:23;3.72;;;1.10;;
50337;SDS011;46221;51.178;5.900;2023-07-13T03:14:50;2.80;;;1.23;;
50337;SDS011;46221;51.178;5.900;2023-07-13T03:17:16;3.28;;;0.90;;
50337;SDS011;46221;51.178;5.900;2023-07-13T03:19:43;3.45;;;0.80;;
50337;SDS011;46221;51.178;5.900;2023-07-13T03:22:10;4.30;;;1.05;;
50337;SDS011;46221;51.178;5.900;2023-07-13T03:24:36;2.85;;;1.08;;
50337;SDS011;46221;51.178;5.900;2023-07-13T03:27:05;2.88;;;0.93;;
50337;SDS011;46221;51.178;5.900;2023-07-13T03:29:31;2.97;;;1.05;;
50337;SDS011;46221;51.178;5.900;2023-07-13T03:31:58;2.42;;;0.82;;
50337;SDS011;46221;51.178;5.900;2023-07-13T03:34:24;2.85;;;0.93;;
50337;SDS011;46221;51.178;5.900;2023-07-13T03:36:53;2.88;;;0.70;;
50337;SDS011;46221;51.178;5.900;2023-07-13T03:39:20;2.58;;;0.73;;
50337;SDS011;46221;51.178;5.900;2023-07-13T03:41:46;1.92;;;0.80;;
50337;SDS011;46221;51.178;5.900;2023-07-13T03:44:12;3.25;;;1.10;;
50337;SDS011;46221;51.178;5.900;2023-07-13T03:46:39;2.40;;;0.82;;
50337;SDS011;46221;51.178;5.900;2023-07-13T03:49:05;3.17;;;1.35;;
50337;SDS011;46221;51.178;5.900;2023-07-13T03:51:32;2.17;;;0.82;;
50337;SDS011;46221;51.178;5.900;2023-07-13T03:53:58;3.03;;;1.15;;
50337;SDS011;46221;51.178;5.900;2023-07-13T03:56:25;2.50;;;1.00;;
50337;SDS011;46221;51.178;5.900;2023-07-13T03:58:51;2.28;;;0.95;;
50337;SDS011;46221;51.178;5.900;2023-07-13T04:01:18;4.07;;;1.00;;
50337;SDS011;46221;51.178;5.900;2023-07-13T04:03:45;3.38;;;1.23;;
50337;SDS011;46221;51.178;5.900;2023-07-13T04:06:23;3.05;;;1.20;;
50337;SDS011;46221;51.178;5.900;2023-07-13T04:08:51;2.85;;;0.90;;
50337;SDS011;46221;51.178;5.900;2023-07-13T04:11:19;2.50;;;1.20;;
50337;SDS011;46221;51.178;5.900;2023-07-13T04:13:46;3.38;;;1.10;;
50337;SDS011;46221;51.178;5.900;2023-07-13T04:16:14;2.63;;;1.02;;
50337;SDS011;46221;51.178;5.900;2023-07-13T04:18:41;4.50;;;1.20;;
50337;SDS011;46221;51.178;5.900;2023-07-13T04:21:07;2.88;;;0.90;;
50337;SDS011;46221;51.178;5.900;2023-07-13T04:23:36;2.75;;;0.93;;
50337;SDS011;46221;51.178;5.900;2023-07-13T04:26:02;4.03;;;1.20;;
50337;SDS011;46221;51.178;5.900;2023-07-13T04:28:29;4.60;;;1.25;;
50337;SDS011;46221;51.178;5.900;2023-07-13T04:30:55;3.45;;;1.30;;
50337;SDS011;46221;51.178;5.900;2023-07-13T04:33:22;3.38;;;1.35;;
50337;SDS011;46221;51.178;5.900;2023-07-13T04:35:52;4.30;;;1.10;;
50337;SDS011;46221;51.178;5.900;2023-07-13T04:38:26;4.35;;;1.10;;
50337;SDS011;46221;51.178;5.900;2023-07-13T04:40:57;3.78;;;1.20;;
50337;SDS011;46221;51.178;5.900;2023-07-13T04:43:24;1.70;;;0.80;;
50337;SDS011;46221;51.178;5.900;2023-07-13T04:45:51;3.17;;;1.27;;
50337;SDS011;46221;51.178;5.900;2023-07-13T04:48:18;2.85;;;1.30;;
50337;SDS011;46221;51.178;5.900;2023-07-13T04:50:45;3.10;;;1.20;;
50337;SDS011;46221;51.178;5.900;2023-07-13T04:53:11;4.63;;;1.20;;
50337;SDS011;46221;51.178;5.900;2023-07-13T04:55:37;3.58;;;1.15;;
50337;SDS011;46221;51.178;5.900;2023-07-13T04:58:04;3.55;;;1.30;;
50337;SDS011;46221;51.178;5.900;2023-07-13T05:00:31;4.07;;;1.30;;
50337;SDS011;46221;51.178;5.900;2023-07-13T05:02:58;2.55;;;1.00;;
50337;SDS011;46221;51.178;5.900;2023-07-13T05:05:25;4.80;;;1.55;;
50337;SDS011;46221;51.178;5.900;2023-07-13T05:07:52;3.50;;;1.00;;
50337;SDS011;46221;51.178;5.900;2023-07-13T05:10:18;6.82;;;1.70;;
50337;SDS011;46221;51.178;5.900;2023-07-13T05:12:45;4.85;;;1.60;;
50337;SDS011;46221;51.178;5.900;2023-07-13T05:15:11;4.95;;;1.90;;
50337;SDS011;46221;51.178;5.900;2023-07-13T05:17:38;5.88;;;2.22;;
50337;SDS011;46221;51.178;5.900;2023-07-13T05:20:08;6.80;;;1.80;;
50337;SDS011;46221;51.178;5.900;2023-07-13T05:22:34;6.05;;;2.10;;
50337;SDS011;46221;51.178;5.900;2023-07-13T05:25:03;5.45;;;1.67;;
50337;SDS011;46221;51.178;5.900;2023-07-13T05:27:29;5.30;;;1.95;;
50337;SDS011;46221;51.178;5.900;2023-07-13T05:29:56;5.40;;;1.90;;
50337;SDS011;46221;51.178;5.900;2023-07-13T05:32:22;6.57;;;1.90;;
50337;SDS011;46221;51.178;5.900;2023-07-13T05:34:49;5.53;;;1.65;;
50337;SDS011;46221;51.178;5.900;2023-07-13T05:37:15;5.65;;;1.70;;
50337;SDS011;46221;51.178;5.900;2023-07-13T05:39:41;6.75;;;1.77;;
50337;SDS011;46221;51.178;5.900;2023-07-13T05:42:08;6.70;;;1.98;;
50337;SDS011;46221;51.178;5.900;2023-07-13T05:44:35;5.15;;;1.85;;
50337;SDS011;46221;51.178;5.900;2023-07-13T05:47:01;5.20;;;1.95;;
50337;SDS011;46221;51.178;5.900;2023-07-13T05:49:28;6.25;;;2.20;;
50337;SDS011;46221;51.178;5.900;2023-07-13T05:51:56;7.70;;;2.20;;
50337;SDS011;46221;51.178;5.900;2023-07-13T05:54:23;6.13;;;2.08;;
50337;SDS011;46221;51.178;5.900;2023-07-13T05:56:49;7.05;;;2.30;;
50337;SDS011;46221;51.178;5.900;2023-07-13T05:59:17;6.03;;;2.38;;
50337;SDS011;46221;51.178;5.900;2023-07-13T06:01:43;5.20;;;2.08;;
50337;SDS011;46221;51.178;5.900;2023-07-13T06:04:10;6.43;;;2.33;;
50337;SDS011;46221;51.178;5.900;2023-07-13T06:06:36;8.52;;;2.55;;
50337;SDS011;46221;51.178;5.900;2023-07-13T06:09:03;7.30;;;2.00;;
50337;SDS011;46221;51.178;5.900;2023-07-13T06:11:29;6.57;;;2.22;;
50337;SDS011;46221;51.178;5.900;2023-07-13T06:13:56;6.45;;;1.95;;
50337;SDS011;46221;51.178;5.900;2023-07-13T06:16:23;6.78;;;2.25;;
50337;SDS011;46221;51.178;5.900;2023-07-13T06:18:49;10.02;;;2.45;;
50337;SDS011;46221;51.178;5.900;2023-07-13T06:21:16;7.18;;;2.13;;
50337;SDS011;46221;51.178;5.900;2023-07-13T06:23:43;7.80;;;2.30;;
50337;SDS011;46221;51.178;5.900;2023-07-13T06:26:10;8.50;;;2.20;;
50337;SDS011;46221;51.178;5.900;2023-07-13T06:28:37;5.78;;;2.15;;
50337;SDS011;46221;51.178;5.900;2023-07-13T06:31:07;9.23;;;2.17;;
50337;SDS011;46221;51.178;5.900;2023-07-13T06:33:35;7.32;;;2.33;;
50337;SDS011;46221;51.178;5.900;2023-07-13T06:36:04;6.38;;;2.28;;
50337;SDS011;46221;51.178;5.900;2023-07-13T06:38:31;6.15;;;2.20;;
50337;SDS011;46221;51.178;5.900;2023-07-13T06:40:58;7.10;;;2.28;;
50337;SDS011;46221;51.178;5.900;2023-07-13T06:43:24;7.55;;;2.53;;
50337;SDS011;46221;51.178;5.900;2023-07-13T06:45:53;9.23;;;2.42;;
50337;SDS011;46221;51.178;5.900;2023-07-13T06:48:20;6.20;;;1.90;;
50337;SDS011;46221;51.178;5.900;2023-07-13T06:50:47;8.90;;;2.42;;
50337;SDS011;46221;51.178;5.900;2023-07-13T06:53:14;7.03;;;2.05;;
50337;SDS011;46221;51.178;5.900;2023-07-13T06:55:43;7.15;;;2.20;;
50337;SDS011;46221;51.178;5.900;2023-07-13T06:58:09;5.45;;;2.10;;
50337;SDS011;46221;51.178;5.900;2023-07-13T07:00:35;7.30;;;2.35;;
50337;SDS011;46221;51.178;5.900;2023-07-13T07:03:02;6.68;;;2.42;;
50337;SDS011;46221;51.178;5.900;2023-07-13T07:05:29;6.25;;;2.42;;
50337;SDS011;46221;51.178;5.900;2023-07-13T07:07:55;5.35;;;2.13;;
50337;SDS011;46221;51.178;5.900;2023-07-13T07:10:22;7.65;;;2.30;;
50337;SDS011;46221;51.178;5.900;2023-07-13T07:12:48;6.90;;;2.35;;
50337;SDS011;46221;51.178;5.900;2023-07-13T07:15:15;10.07;;;2.38;;
50337;SDS011;46221;51.178;5.900;2023-07-13T07:17:42;8.75;;;2.45;;
50337;SDS011;46221;51.178;5.900;2023-07-13T07:20:08;7.57;;;2.40;;
50337;SDS011;46221;51.178;5.900;2023-07-13T07:22:35;10.50;;;2.38;;
50337;SDS011;46221;51.178;5.900;2023-07-13T07:25:02;6.57;;;2.05;;
50337;SDS011;46221;51.178;5.900;2023-07-13T07:27:28;9.57;;;2.92;;
50337;SDS011;46221;51.178;5.900;2023-07-13T07:29:58;6.32;;;2.10;;
50337;SDS011;46221;51.178;5.900;2023-07-13T07:32:29;8.13;;;2.72;;
50337;SDS011;46221;51.178;5.900;2023-07-13T07:35:15;8.80;;;2.63;;
50337;SDS011;46221;51.178;5.900;2023-07-13T07:37:42;6.60;;;2.40;;
50337;SDS011;46221;51.178;5.900;2023-07-13T07:40:11;7.57;;;2.58;;
50337;SDS011;46221;51.178;5.900;2023-07-13T07:42:40;9.50;;;2.85;;
50337;SDS011;46221;51.178;5.900;2023-07-13T07:45:07;7.32;;;2.53;;
50337;SDS011;46221;51.178;5.900;2023-07-13T07:47:33;7.38;;;2.50;;
50337;SDS011;46221;51.178;5.900;2023-07-13T07:50:00;8.60;;;2.30;;
50337;SDS011;46221;51.178;5.900;2023-07-13T07:52:26;9.07;;;2.63;;
50337;SDS011;46221;51.178;5.900;2023-07-13T07:54:53;7.57;;;2.75;;
50337;SDS011;46221;51.178;5.900;2023-07-13T07:57:22;7.22;;;2.60;;
50337;SDS011;46221;51.178;5.900;2023-07-13T07:59:51;8.32;;;2.95;;
50337;SDS011;46221;51.178;5.900;2023-07-13T08:02:21;7.43;;;2.40;;
50337;SDS011;46221;51.178;5.900;2023-07-13T08:04:50;7.85;;;2.22;;
50337;SDS011;46221;51.178;5.900;2023-07-13T08:07:19;7.20;;;2.20;;
50337;SDS011;46221;51.178;5.900;2023-07-13T08:09:46;5.03;;;2.10;;
50337;SDS011;46221;51.178;5.900;2023-07-13T08:12:13;9.40;;;2.40;;
50337;SDS011;46221;51.178;5.900;2023-07-13T08:14:42;6.53;;;2.22;;
50337;SDS011;46221;51.178;5.900;2023-07-13T08:17:18;8.15;;;2.35;;
50337;SDS011;46221;51.178;5.900;2023-07-13T08:19:44;7.55;;;2.35;;
50337;SDS011;46221;51.178;5.900;2023-07-13T08:22:11;7.50;;;2.38;;
50337;SDS011;46221;51.178;5.900;2023-07-13T08:24:38;7.80;;;2.50;;
50337;SDS011;46221;51.178;5.900;2023-07-13T08:27:04;8.95;;;2.13;;
50337;SDS011;46221;51.178;5.900;2023-07-13T08:29:31;8.80;;;2.30;;
50337;SDS011;46221;51.178;5.900;2023-07-13T08:32:00;6.88;;;2.17;;
50337;SDS011;46221;51.178;5.900;2023-07-13T08:34:26;6.78;;;2.47;;
50337;SDS011;46221;51.178;5.900;2023-07-13T08:36:53;8.07;;;2.15;;
50337;SDS011;46221;51.178;5.900;2023-07-13T08:39:19;7.45;;;2.40;;
50337;SDS011;46221;51.178;5.900;2023-07-13T08:41:46;8.35;;;2.35;;
50337;SDS011;46221;51.178;5.900;2023-07-13T08:44:18;5.85;;;1.95;;
50337;SDS011;46221;51.178;5.900;2023-07-13T08:46:45;6.47;;;2.60;;
50337;SDS011;46221;51.178;5.900;2023-07-13T08:49:16;5.75;;;2.20;;
50337;SDS011;46221;51.178;5.900;2023-07-13T08:51:45;9.57;;;2.45;;
50337;SDS011;46221;51.178;5.900;2023-07-13T08:56:43;7.82;;;2.45;;
50337;SDS011;46221;51.178;5.900;2023-07-13T08:59:12;6.25;;;2.30;;
50337;SDS011;46221;51.178;5.900;2023-07-13T09:01:58;6.90;;;2.30;;
50337;SDS011;46221;51.178;5.900;2023-07-13T09:04:37;6.85;;;2.72;;
50337;SDS011;46221;51.178;5.900;2023-07-13T09:14:47;7.78;;;2.40;;
50337;SDS011;46221;51.178;5.900;2023-07-13T09:17:17;6.28;;;2.30;;
50337;SDS011;46221;51.178;5.900;2023-07-13T09:19:45;5.47;;;2.03;;
50337;SDS011;46221;51.178;5.900;2023-07-13T09:22:14;6.68;;;1.90;;
50337;SDS011;46221;51.178;5.900;2023-07-13T09:25:00;6.18;;;2.28;;
50337;SDS011;46221;51.178;5.900;2023-07-13T09:29:57;4.97;;;2.17;;
50337;SDS011;46221;51.178;5.900;2023-07-13T09:32:25;7.28;;;2.00;;
50337;SDS011;46221;51.178;5.900;2023-07-13T09:34:53;8.70;;;2.17;;
50337;SDS011;46221;51.178;5.900;2023-07-13T09:37:21;5.47;;;2.10;;
50337;SDS011;46221;51.178;5.900;2023-07-13T09:39:49;4.80;;;1.98;;
50337;SDS011;46221;51.178;5.900;2023-07-13T09:44:56;5.25;;;1.90;;
50337;SDS011;46221;51.178;5.900;2023-07-13T09:47:27;4.57;;;1.80;;
50337;SDS011;46221;51.178;5.900;2023-07-13T09:49:58;5.47;;;1.98;;
50337;SDS011;46221;51.178;5.900;2023-07-13T09:52:43;7.80;;;1.83;;
50337;SDS011;46221;51.178;5.900;2023-07-13T09:58:10;4.85;;;1.77;;
50337;SDS011;46221;51.178;5.900;2023-07-13T10:00:38;5.05;;;1.90;;
50337;SDS011;46221;51.178;5.900;2023-07-13T10:03:27;6.18;;;2.45;;
50337;SDS011;46221;51.178;5.900;2023-07-13T10:05:54;4.57;;;1.85;;
50337;SDS011;46221;51.178;5.900;2023-07-13T10:08:22;4.55;;;1.65;;
50337;SDS011;46221;51.178;5.900;2023-07-13T10:10:53;5.03;;;1.75;;
50337;SDS011;46221;51.178;5.900;2023-07-13T10:14:09;7.28;;;2.00;;
50337;SDS011;46221;51.178;5.900;2023-07-13T10:16:11;4.10;;;1.65;;
50337;SDS011;46221;51.178;5.900;2023-07-13T10:18:39;4.40;;;2.00;;
50337;SDS011;46221;51.178;5.900;2023-07-13T10:21:12;4.75;;;1.70;;
50337;SDS011;46221;51.178;5.900;2023-07-13T10:24:35;6.07;;;1.77;;
50337;SDS011;46221;51.178;5.900;2023-07-13T10:29:19;4.38;;;1.60;;
50337;SDS011;46221;51.178;5.900;2023-07-13T10:31:46;5.35;;;1.70;;
50337;SDS011;46221;51.178;5.900;2023-07-13T10:34:13;4.63;;;1.65;;
50337;SDS011;46221;51.178;5.900;2023-07-13T10:36:43;5.10;;;1.40;;
50337;SDS011;46221;51.178;5.900;2023-07-13T10:39:14;6.03;;;1.63;;
50337;SDS011;46221;51.178;5.900;2023-07-13T10:41:41;5.65;;;2.03;;
50337;SDS011;46221;51.178;5.900;2023-07-13T10:44:22;3.33;;;1.58;;
50337;SDS011;46221;51.178;5.900;2023-07-13T10:46:53;5.63;;;1.92;;
50337;SDS011;46221;51.178;5.900;2023-07-13T10:49:21;4.13;;;1.70;;
50337;SDS011;46221;51.178;5.900;2023-07-13T10:51:48;4.93;;;1.75;;
50337;SDS011;46221;51.178;5.900;2023-07-13T10:54:18;4.60;;;1.90;;
50337;SDS011;46221;51.178;5.900;2023-07-13T10:56:46;4.72;;;1.58;;
50337;SDS011;46221;51.178;5.900;2023-07-13T10:59:17;5.80;;;1.95;;
50337;SDS011;46221;51.178;5.900;2023-07-13T11:01:50;6.32;;;1.63;;
50337;SDS011;46221;51.178;5.900;2023-07-13T11:04:16;3.35;;;1.55;;
50337;SDS011;46221;51.178;5.900;2023-07-13T11:06:45;4.45;;;1.63;;
50337;SDS011;46221;51.178;5.900;2023-07-13T11:11:48;4.80;;;1.63;;
50337;SDS011;46221;51.178;5.900;2023-07-13T11:16:53;6.30;;;1.70;;
50337;SDS011;46221;51.178;5.900;2023-07-13T11:24:51;4.57;;;1.85;;
50337;SDS011;46221;51.178;5.900;2023-07-13T11:30:07;6.80;;;1.83;;
50337;SDS011;46221;51.178;5.900;2023-07-13T11:32:34;4.95;;;1.63;;
50337;SDS011;46221;51.178;5.900;2023-07-13T11:35:01;6.28;;;1.90;;
50337;SDS011;46221;51.178;5.900;2023-07-13T11:37:27;4.40;;;1.45;;
50337;SDS011;46221;51.178;5.900;2023-07-13T11:39:56;5.35;;;1.40;;
50337;SDS011;46221;51.178;5.900;2023-07-13T11:42:22;4.68;;;1.45;;
50337;SDS011;46221;51.178;5.900;2023-07-13T11:44:49;3.78;;;1.70;;
50337;SDS011;46221;51.178;5.900;2023-07-13T11:47:35;4.32;;;1.50;;
50337;SDS011;46221;51.178;5.900;2023-07-13T11:50:06;3.67;;;1.42;;
50337;SDS011;46221;51.178;5.900;2023-07-13T11:52:33;3.33;;;1.48;;
50337;SDS011;46221;51.178;5.900;2023-07-13T11:55:00;4.60;;;1.38;;
50337;SDS011;46221;51.178;5.900;2023-07-13T12:00:00;4.10;;;1.80;;
50337;SDS011;46221;51.178;5.900;2023-07-13T12:02:30;4.55;;;1.40;;
50337;SDS011;46221;51.178;5.900;2023-07-13T12:04:57;2.55;;;1.17;;
50337;SDS011;46221;51.178;5.900;2023-07-13T12:07:24;3.92;;;1.30;;
50337;SDS011;46221;51.178;5.900;2023-07-13T12:09:59;3.75;;;1.48;;
50337;SDS011;46221;51.178;5.900;2023-07-13T12:12:28;2.72;;;1.40;;
50337;SDS011;46221;51.178;5.900;2023-07-13T12:14:55;4.80;;;1.52;;
50337;SDS011;46221;51.178;5.900;2023-07-13T12:17:22;3.10;;;1.30;;
50337;SDS011;46221;51.178;5.900;2023-07-13T12:19:50;2.95;;;1.40;;
50337;SDS011;46221;51.178;5.900;2023-07-13T12:22:17;4.30;;;1.20;;
50337;SDS011;46221;51.178;5.900;2023-07-13T12:24:44;4.90;;;1.77;;
50337;SDS011;46221;51.178;5.900;2023-07-13T12:27:18;2.42;;;1.10;;
50337;SDS011;46221;51.178;5.900;2023-07-13T12:29:58;3.42;;;1.67;;
50337;SDS011;46221;51.178;5.900;2023-07-13T12:32:25;3.33;;;1.20;;
50337;SDS011;46221;51.178;5.900;2023-07-13T12:34:55;2.80;;;1.38;;
50337;SDS011;46221;51.178;5.900;2023-07-13T12:37:23;3.30;;;1.45;;
50337;SDS011;46221;51.178;5.900;2023-07-13T12:39:49;3.20;;;1.20;;
50337;SDS011;46221;51.178;5.900;2023-07-13T12:44:51;3.05;;;1.10;;
50337;SDS011;46221;51.178;5.900;2023-07-13T12:47:19;4.60;;;1.50;;
50337;SDS011;46221;51.178;5.900;2023-07-13T12:49:50;3.38;;;1.20;;
50337;SDS011;46221;51.178;5.900;2023-07-13T12:52:19;3.53;;;1.30;;
50337;SDS011;46221;51.178;5.900;2023-07-13T12:54:54;3.70;;;1.40;;
50337;SDS011;46221;51.178;5.900;2023-07-13T12:57:31;3.63;;;1.20;;
50337;SDS011;46221;51.178;5.900;2023-07-13T12:59:58;2.95;;;1.40;;
50337;SDS011;46221;51.178;5.900;2023-07-13T13:02:26;3.78;;;1.50;;
50337;SDS011;46221;51.178;5.900;2023-07-13T13:04:55;5.00;;;1.45;;
50337;SDS011;46221;51.178;5.900;2023-07-13T13:07:23;2.60;;;1.23;;
50337;SDS011;46221;51.178;5.900;2023-07-13T13:09:49;3.80;;;1.35;;
50337;SDS011;46221;51.178;5.900;2023-07-13T13:12:16;2.75;;;1.15;;
50337;SDS011;46221;51.178;5.900;2023-07-13T13:14:43;2.95;;;1.20;;
50337;SDS011;46221;51.178;5.900;2023-07-13T13:17:16;4.65;;;1.20;;
50337;SDS011;46221;51.178;5.900;2023-07-13T13:19:45;2.55;;;1.20;;
50337;SDS011;46221;51.178;5.900;2023-07-13T13:22:12;3.47;;;1.23;;
50337;SDS011;46221;51.178;5.900;2023-07-13T13:24:38;2.83;;;1.10;;
50337;SDS011;46221;51.178;5.900;2023-07-13T13:27:05;2.90;;;1.20;;
50337;SDS011;46221;51.178;5.900;2023-07-13T13:29:32;3.08;;;1.10;;
50337;SDS011;46221;51.178;5.900;2023-07-13T13:32:00;2.60;;;1.27;;
50337;SDS011;46221;51.178;5.900;2023-07-13T13:34:26;2.65;;;1.23;;
50337;SDS011;46221;51.178;5.900;2023-07-13T13:36:53;3.45;;;1.17;;
50337;SDS011;46221;51.178;5.900;2023-07-13T13:39:33;2.65;;;1.10;;
50337;SDS011;46221;51.178;5.900;2023-07-13T13:42:00;4.03;;;1.02;;
50337;SDS011;46221;51.178;5.900;2023-07-13T13:44:27;2.75;;;0.98;;
50337;SDS011;46221;51.178;5.900;2023-07-13T13:46:56;2.78;;;1.20;;
50337;SDS011;46221;51.178;5.900;2023-07-13T13:49:23;3.40;;;1.20;;
50337;SDS011;46221;51.178;5.900;2023-07-13T13:51:51;3.03;;;1.10;;
50337;SDS011;46221;51.178;5.900;2023-07-13T13:54:18;4.15;;;1.45;;
50337;SDS011;46221;51.178;5.900;2023-07-13T13:56:46;2.25;;;1.05;;
50337;SDS011;46221;51.178;5.900;2023-07-13T13:59:13;3.47;;;1.17;;
50337;SDS011;46221;51.178;5.900;2023-07-13T14:01:41;3.53;;;1.70;;
50337;SDS011;46221;51.178;5.900;2023-07-13T14:04:09;3.42;;;1.30;;
50337;SDS011;46221;51.178;5.900;2023-07-13T14:06:39;3.15;;;1.20;;
50337;SDS011;46221;51.178;5.900;2023-07-13T14:09:11;3.67;;;1.30;;
50337;SDS011;46221;51.178;5.900;2023-07-13T14:11:38;4.05;;;1.50;;
50337;SDS011;46221;51.178;5.900;2023-07-13T14:14:04;3.53;;;1.30;;
50337;SDS011;46221;51.178;5.900;2023-07-13T14:16:31;5.07;;;1.45;;
50337;SDS011;46221;51.178;5.900;2023-07-13T14:18:59;3.58;;;1.30;;
50337;SDS011;46221;51.178;5.900;2023-07-13T14:21:28;2.80;;;1.20;;
50337;SDS011;46221;51.178;5.900;2023-07-13T14:23:54;3.28;;;1.30;;
50337;SDS011;46221;51.178;5.900;2023-07-13T14:26:22;3.08;;;1.38;;
50337;SDS011;46221;51.178;5.900;2023-07-13T14:28:53;2.80;;;1.35;;
50337;SDS011;46221;51.178;5.900;2023-07-13T14:31:20;3.53;;;1.25;;
50337;SDS011;46221;51.178;5.900;2023-07-13T14:33:50;2.90;;;1.35;;
50337;SDS011;46221;51.178;5.900;2023-07-13T14:36:28;3.33;;;1.42;;
50337;SDS011;46221;51.178;5.900;2023-07-13T14:38:59;3.55;;;1.73;;
50337;SDS011;46221;51.178;5.900;2023-07-13T14:41:26;2.80;;;1.38;;
50337;SDS011;46221;51.178;5.900;2023-07-13T14:43:53;2.55;;;1.30;;
50337;SDS011;46221;51.178;5.900;2023-07-13T14:48:54;2.15;;;1.17;;
50337;SDS011;46221;51.178;5.900;2023-07-13T14:51:24;2.80;;;1.38;;
50337;SDS011;46221;51.178;5.900;2023-07-13T14:53:50;2.40;;;1.15;;
50337;SDS011;46221;51.178;5.900;2023-07-13T14:56:17;3.10;;;1.27;;
50337;SDS011;46221;51.178;5.900;2023-07-13T14:58:43;2.20;;;1.20;;
50337;SDS011;46221;51.178;5.900;2023-07-13T15:01:13;2.33;;;1.10;;
50337;SDS011;46221;51.178;5.900;2023-07-13T15:03:41;3.15;;;1.17;;
50337;SDS011;46221;51.178;5.900;2023-07-13T15:06:10;2.08;;;1.15;;
50337;SDS011;46221;51.178;5.900;2023-07-13T15:08:38;2.72;;;1.27;;
50337;SDS011;46221;51.178;5.900;2023-07-13T15:11:04;3.45;;;1.20;;
50337;SDS011;46221;51.178;5.900;2023-07-13T15:13:31;3.25;;;1.30;;
50337;SDS011;46221;51.178;5.900;2023-07-13T15:15:57;2.35;;;1.33;;
50337;SDS011;46221;51.178;5.900;2023-07-13T15:18:24;2.08;;;1.05;;
50337;SDS011;46221;51.178;5.900;2023-07-13T15:20:51;2.35;;;1.20;;
50337;SDS011;46221;51.178;5.900;2023-07-13T15:23:22;2.72;;;1.35;;
50337;SDS011;46221;51.178;5.900;2023-07-13T15:25:52;2.25;;;1.02;;
50337;SDS011;46221;51.178;5.900;2023-07-13T15:28:18;3.42;;;1.00;;
50337;SDS011;46221;51.178;5.900;2023-07-13T15:30:45;4.47;;;1.30;;
50337;SDS011;46221;51.178;5.900;2023-07-13T15:33:15;2.92;;;1.10;;
50337;SDS011;46221;51.178;5.900;2023-07-13T15:35:43;2.65;;;1.10;;
50337;SDS011;46221;51.178;5.900;2023-07-13T15:38:15;3.15;;;1.20;;